Impacts TAF Board INFO
FOR SITUATIONAL AWARENESS. NOT TO BE USED FOR FLIGHT PLANNING PURPOSES.
IDs:

KSAN - San Diego Intl Arpt, CA, US

Issued at 1730 UTC 24 Jun 2018
Updated at 1832 UTC 24 Jun 2018
Potential Impact None Slight Moderate High
Time1815Z 24/19Z 24/20Z 24/21Z 24/22Z 24/23Z 25/00Z 25/01Z 25/02Z 25/03Z 25/04Z 25/05Z 25/06Z 25/07Z>>
Type OBS PRVL PRVL PRVL PRVL PRVL PRVL PRVL PRVL PRVL PRVL PRVL PRVL PRVL
VIS 10 >6 >6 >6 >6 >6 >6 >6 >6 >6 >6 >6 >6 >6
CIG -- -- -- -- -- -- -- -- 20 20 20 20 20 20
Cover SCT SCT SCT SCT SCT SCT SCT SCT OVC OVC OVC OVC OVC OVC
FltCat VFR VFR VFR VFR VFR VFR VFR VFR MVFR MVFR MVFR MVFR MVFR MVFR
WX -- -- -- -- -- -- -- -- -- -- -- -- -- --
WDir 210 200 200 200 200 200 200 200 220 220 220 220 220 220
WSpd 10 8 8 8 8 8 8 8 5 5 5 5 5 5
WGst -- -- -- -- -- -- -- -- -- -- -- -- -- --

Raw TAF
KSAN 241730Z 2418/2524 20008KT P6SM SCT022
  FM250200 22005KT P6SM OVC020
  FM251200 19005KT P6SM OVC012
  FM252000 24008KT P6SM SCT018


Raw METAR
KSAN 241815Z 21010KT 10SM SCT023 20/13 A2998 RMK AO2 T02000133
KSAN 241751Z 23009KT 10SM BKN023 20/13 A2997 RMK AO2 SLP150 T02000133 10200 20172 51011
KSAN 241651Z 20007KT 10SM OVC022 19/13 A2997 RMK AO2 SLP147 T01890133
KSAN 241551Z 19007KT 10SM OVC022 18/14 A2996 RMK AO2 SLP145 T01830139

METAR Board
Radar Display
Forecast Discussion

FOR SITUATIONAL AWARENESS. NOT TO BE USED FOR FLIGHT PLANNING PURPOSES.